Galloway, New Jersey
Current Conditions -  °F | °C
As of 1:54 AM on Friday 28 Nov 2014 (Local Time) from KACY Reporting Station
Clear Clear  
Wind Chill: 23°   Ceiling: Unl
Heat Index: 28°   Visibility: 10mi
Dew Point: 25°   Wind: 5mph
Humidity: 88%   Direction: 280°W
Pressure: 30.12"   Gusts: NA
Location:  39.4315°N, 74.5003°W
Report Text: KACY 280654Z AUTO 28004KT 10SM CLR M02/M04 A3012 RMK AO2 SLP199 T10221039 TSNO
Loading
Personal Weather Stations






























Interactive Weather Map New forecast layout! Learn more

10-Day Weather Forecast

Advertisements
Track Severe Weather on mobile